createdAt,value
2022-12-22T00:00:02.152Z,1552
2022-12-22T00:05:20.642Z,1569
2022-12-22T00:10:39.143Z,1552
2022-12-22T00:15:57.892Z,1557
2022-12-22T00:21:16.416Z,1553
2022-12-22T00:26:34.602Z,1554
2022-12-22T00:31:53.052Z,1592
2022-12-22T00:37:11.586Z,1603
2022-12-22T00:42:30.073Z,1609
2022-12-22T00:47:48.535Z,1617
2022-12-22T00:53:07.011Z,1641
2022-12-22T00:58:25.811Z,1700
2022-12-22T01:03:44.343Z,1768
2022-12-22T01:09:03.024Z,1699
2022-12-22T01:14:21.790Z,1715
2022-12-22T01:19:39.910Z,1694
2022-12-22T01:24:58.660Z,1756
2022-12-22T01:30:16.919Z,1779
2022-12-22T01:35:35.140Z,1780
2022-12-22T01:40:53.640Z,1723
2022-12-22T01:46:12.460Z,1718
2022-12-22T01:51:15.891Z,1708
2022-12-22T01:56:34.415Z,1698
2022-12-22T02:01:52.947Z,1711
2022-12-22T02:07:11.658Z,1716
2022-12-22T02:12:30.648Z,1725
2022-12-22T02:17:48.887Z,1691
2022-12-22T02:23:07.643Z,1679
2022-12-22T02:28:26.139Z,1704
2022-12-22T02:33:45.604Z,1696
2022-12-22T02:39:03.814Z,1671
2022-12-22T02:44:22.025Z,1676
2022-12-22T02:49:40.585Z,1692
2022-12-22T02:55:00.241Z,1697
2022-12-22T03:00:19.016Z,1692
2022-12-22T03:05:38.088Z,1684
2022-12-22T03:10:56.317Z,1677
2022-12-22T03:16:14.878Z,1684
2022-12-22T03:21:33.717Z,1682
2022-12-22T03:26:51.653Z,1679
2022-12-22T03:32:09.858Z,1694
2022-12-22T03:37:28.087Z,1697
2022-12-22T03:42:46.371Z,1695
2022-12-22T03:48:04.561Z,1695
2022-12-22T03:53:23.091Z,1710
2022-12-22T03:58:41.319Z,1730
2022-12-22T04:03:59.239Z,1663
2022-12-22T04:09:17.484Z,1637
2022-12-22T04:14:35.860Z,1626
2022-12-22T04:19:54.629Z,1627
2022-12-22T04:25:13.125Z,1626
2022-12-22T04:30:31.610Z,1640
2022-12-22T04:35:50.375Z,1633
2022-12-22T04:41:09.169Z,1623
2022-12-22T04:46:27.568Z,1614
2022-12-22T04:51:45.860Z,1604
2022-12-22T04:57:04.091Z,1596
2022-12-22T05:02:22.477Z,1598
2022-12-22T05:07:41.555Z,1612
2022-12-22T05:13:00.112Z,1617
2022-12-22T05:18:18.593Z,1653
2022-12-22T05:23:37.374Z,1632
2022-12-22T05:28:55.610Z,1623
2022-12-22T05:34:14.095Z,1636
2022-12-22T05:39:32.325Z,1657
2022-12-22T05:44:50.551Z,1635
2022-12-22T05:50:08.469Z,1602
2022-12-22T05:55:27.205Z,1583
2022-12-22T06:00:45.418Z,1570
2022-12-22T06:06:03.607Z,1548
2022-12-22T06:11:22.110Z,1525
2022-12-22T06:16:40.141Z,1510
2022-12-22T06:21:58.774Z,1500
2022-12-22T06:27:16.712Z,1491
2022-12-22T06:32:35.541Z,1487
2022-12-22T06:37:53.799Z,1488
2022-12-22T06:43:11.994Z,1497
2022-12-22T06:48:30.794Z,1486
2022-12-22T06:53:49.273Z,1495
2022-12-22T06:59:07.502Z,1506
2022-12-22T07:04:25.750Z,1507
2022-12-22T07:09:43.967Z,1503
2022-12-22T07:15:02.483Z,1493
2022-12-22T07:20:21.259Z,1476
2022-12-22T07:25:39.808Z,1467
2022-12-22T07:30:58.380Z,1455
2022-12-22T07:36:01.305Z,1465
2022-12-22T07:41:19.527Z,1020
2022-12-22T07:46:38.106Z,963
2022-12-22T07:51:57.155Z,910
2022-12-22T07:57:15.694Z,842
2022-12-22T08:02:38.651Z,756
2022-12-22T08:07:57.981Z,720
2022-12-22T08:13:16.249Z,724
2022-12-22T08:18:34.709Z,851
2022-12-22T08:23:52.919Z,937
2022-12-22T08:29:11.116Z,985
2022-12-22T08:34:29.590Z,993
2022-12-22T08:39:48.120Z,1005
2022-12-22T08:44:52.790Z,1011
2022-12-22T08:50:11.602Z,1027
2022-12-22T08:55:30.155Z,1035
2022-12-22T09:00:48.646Z,1042
2022-12-22T09:06:07.090Z,1047
2022-12-22T09:11:25.635Z,1080
2022-12-22T09:16:43.884Z,1089
2022-12-22T09:22:02.667Z,1089
2022-12-22T09:27:21.154Z,1095
2022-12-22T09:32:39.632Z,1102
2022-12-22T09:37:42.493Z,1116
2022-12-22T09:43:01.367Z,1138
2022-12-22T09:48:19.627Z,1166
2022-12-22T09:53:38.128Z,1183
2022-12-22T09:58:56.340Z,1179
2022-12-22T10:04:00.776Z,1179
2022-12-22T10:09:47.965Z,1162
2022-12-22T10:15:09.909Z,1150
2022-12-22T10:20:29.267Z,1135
2022-12-22T10:31:51.505Z,1071
2022-12-22T10:37:10.208Z,1046
2022-12-22T10:42:28.421Z,1020
2022-12-22T10:47:46.360Z,1005
2022-12-22T10:53:05.160Z,981
2022-12-22T10:58:23.652Z,963
2022-12-22T11:03:42.198Z,939
2022-12-22T11:09:23.942Z,928
2022-12-22T11:14:53.286Z,916
2022-12-22T11:20:11.283Z,910
2022-12-22T11:25:29.216Z,897
2022-12-22T11:30:47.840Z,887
2022-12-22T11:36:06.971Z,873
2022-12-22T11:41:25.482Z,868
2022-12-22T11:46:43.453Z,865
2022-12-22T11:52:01.960Z,854
2022-12-22T11:57:20.855Z,848
2022-12-22T12:02:39.028Z,843
2022-12-22T12:07:57.603Z,844
2022-12-22T12:13:21.145Z,839
2022-12-22T12:18:54.850Z,843
2022-12-22T12:24:13.358Z,841
2022-12-22T12:29:31.283Z,841
2022-12-22T12:34:49.782Z,867
2022-12-22T12:40:07.834Z,888
2022-12-22T12:45:26.018Z,916
2022-12-22T12:50:44.503Z,920
2022-12-22T12:56:03.315Z,930
2022-12-22T13:01:22.297Z,925
2022-12-22T13:06:45.101Z,910
2022-12-22T13:12:12.513Z,906
2022-12-22T13:17:42.229Z,897
2022-12-22T13:23:01.021Z,896
2022-12-22T13:28:19.111Z,894
2022-12-22T13:33:37.133Z,890
2022-12-22T13:38:55.342Z,888
2022-12-22T13:44:13.839Z,882
2022-12-22T13:49:58.927Z,884
2022-12-22T13:55:27.940Z,880
2022-12-22T14:00:46.854Z,878
2022-12-22T14:06:05.110Z,876
2022-12-22T14:11:23.591Z,865
2022-12-22T14:16:41.901Z,865
2022-12-22T14:22:00.374Z,863
2022-12-22T14:27:18.866Z,864
2022-12-22T14:32:36.843Z,861
2022-12-22T14:37:54.780Z,856
2022-12-22T14:43:13.280Z,852
2022-12-22T14:48:31.654Z,851
2022-12-22T14:53:50.179Z,773
2022-12-22T14:59:08.355Z,766
2022-12-22T15:04:26.569Z,812
2022-12-22T15:10:14.224Z,876
2022-12-22T15:15:35.305Z,964
2022-12-22T15:20:53.936Z,1000
2022-12-22T15:26:12.383Z,1004
2022-12-22T15:31:30.679Z,1005
2022-12-22T15:36:48.967Z,988
2022-12-22T15:42:07.555Z,972
2022-12-22T15:47:26.087Z,980
2022-12-22T15:52:44.887Z,1001
2022-12-22T15:58:03.195Z,1003
2022-12-22T16:03:21.838Z,992
2022-12-22T16:08:41.164Z,1000
2022-12-22T16:13:44.527Z,1012
2022-12-22T16:19:03.093Z,1018
2022-12-22T16:24:27.388Z,1015
2022-12-22T16:29:45.992Z,1018
2022-12-22T16:35:04.344Z,1017
2022-12-22T16:40:23.469Z,1015
2022-12-22T16:45:26.173Z,1010
2022-12-22T16:50:44.390Z,1021
2022-12-22T16:56:02.889Z,1025
2022-12-22T17:01:21.663Z,1017
2022-12-22T17:06:39.875Z,1024
2022-12-22T17:11:58.380Z,1024
2022-12-22T17:17:02.823Z,1062
2022-12-22T17:22:21.359Z,1065
2022-12-22T17:27:39.724Z,1073
2022-12-22T17:32:58.475Z,1069
2022-12-22T17:38:16.980Z,1076
2022-12-22T17:43:34.961Z,1081
2022-12-22T17:48:53.486Z,1084
2022-12-22T17:54:11.392Z,1090
2022-12-22T17:59:29.903Z,1096
2022-12-22T18:04:48.134Z,1101
2022-12-22T18:10:06.366Z,1106
2022-12-22T18:15:24.589Z,1113
2022-12-22T18:20:43.132Z,1123
2022-12-22T18:26:01.669Z,1128
2022-12-22T18:31:20.598Z,1128
2022-12-22T18:36:39.325Z,1130
2022-12-22T18:41:57.810Z,1137
2022-12-22T18:47:16.420Z,1142
2022-12-22T18:52:34.551Z,1146
2022-12-22T18:57:53.060Z,1150
2022-12-22T19:03:11.993Z,1157
2022-12-22T19:08:30.962Z,1162
2022-12-22T19:13:49.750Z,1165
2022-12-22T19:19:08.265Z,1167
2022-12-22T19:24:11.426Z,1178
2022-12-22T19:29:30.165Z,1184
2022-12-22T19:34:48.399Z,1206
2022-12-22T19:40:07.154Z,1246
2022-12-22T19:45:25.700Z,1260
2022-12-22T19:50:44.191Z,1264
2022-12-22T19:56:02.975Z,1273
2022-12-22T20:01:21.813Z,1277
2022-12-22T20:06:40.352Z,1278
2022-12-22T20:11:59.045Z,1289
2022-12-22T20:17:17.263Z,1290
2022-12-22T20:22:35.895Z,1282
2022-12-22T20:27:54.151Z,1270
2022-12-22T20:33:12.697Z,1269
2022-12-22T20:38:15.674Z,1273
2022-12-22T20:43:33.745Z,1278
2022-12-22T20:48:36.353Z,1264
2022-12-22T20:53:54.637Z,1270
2022-12-22T20:59:12.572Z,1267
2022-12-22T21:04:31.020Z,1273
2022-12-22T21:09:49.293Z,1291
2022-12-22T21:15:07.894Z,1310
2022-12-22T21:20:26.657Z,1360
2022-12-22T21:25:46.629Z,1399
2022-12-22T21:31:04.867Z,1430
2022-12-22T21:36:23.303Z,1442
2022-12-22T21:41:42.098Z,1460
2022-12-22T21:47:00.297Z,1416
2022-12-22T21:52:18.921Z,1433
2022-12-22T21:57:37.716Z,1498
2022-12-22T22:02:55.723Z,1555
2022-12-22T22:08:14.539Z,1597
2022-12-22T22:13:33.326Z,1630
2022-12-22T22:18:51.841Z,1647
2022-12-22T22:24:09.759Z,1670
2022-12-22T22:29:28.597Z,1691
2022-12-22T22:34:46.796Z,1704
2022-12-22T22:40:04.742Z,1700
2022-12-22T22:45:23.538Z,1703
2022-12-22T22:50:42.544Z,1703
2022-12-22T22:56:00.479Z,1701
2022-12-22T23:01:18.737Z,1703
2022-12-22T23:06:36.958Z,1708
2022-12-22T23:11:55.471Z,1716
2022-12-22T23:17:13.409Z,1755
2022-12-22T23:22:31.908Z,1773
2022-12-22T23:27:50.660Z,1760
2022-12-22T23:33:08.684Z,1754
2022-12-22T23:38:26.920Z,1722
2022-12-22T23:43:45.111Z,1724
2022-12-22T23:49:03.615Z,1700
2022-12-22T23:54:21.881Z,1674
2022-12-22T23:59:40.643Z,1669
